Time;durP1;ratioP1;P1;durP2;ratioP2;P2;SDS_P1;SDS_P2;PMS_P1;PMS_P2;Temp;Humidity;BMP_temperature;BMP_pressure;BME280_temperature;BME280_humidity;BME280_pressure;Samples;Min_cycle;Max_cycle;Signal;HPM_P1;HPM_P2
2022/12/01 00:00:54;;;;;;;89.55;44.42;;;5.70;99.90;;;;;;5089244;28;20029;-66
2022/12/01 00:03:21;;;;;;;95.47;42.78;;;5.70;99.90;;;;;;5091588;28;20039;-66
2022/12/01 00:05:46;;;;;;;94.35;43.92;;;5.60;99.90;;;;;;5102366;28;20101;-66
2022/12/01 00:08:12;;;;;;;88.63;43.47;;;5.60;99.90;;;;;;5074826;28;20051;-66
2022/12/01 00:10:38;;;;;;;95.15;44.15;;;5.70;99.90;;;;;;5090275;28;20040;-66
2022/12/01 00:13:05;;;;;;;89.65;42.97;;;5.70;99.90;;;;;;5091327;28;20044;-66
2022/12/01 00:15:33;;;;;;;91.65;43.83;;;5.60;99.90;;;;;;5093829;28;20032;-66
2022/12/01 00:18:00;;;;;;;89.32;44.25;;;5.70;99.90;;;;;;5092035;28;20088;-66
2022/12/01 00:20:27;;;;;;;93.45;43.50;;;5.60;99.90;;;;;;5074753;28;20044;-66
2022/12/01 00:22:53;;;;;;;91.07;43.63;;;5.70;99.90;;;;;;5090130;28;20078;-66
2022/12/01 00:25:19;;;;;;;93.32;43.70;;;5.70;99.90;;;;;;5092612;28;20070;-66
2022/12/01 00:27:49;;;;;;;89.40;43.58;;;5.60;99.90;;;;;;5089667;28;20074;-66
2022/12/01 00:30:17;;;;;;;88.97;42.13;;;5.70;99.90;;;;;;5095556;28;20043;-67
2022/12/01 00:32:43;;;;;;;79.95;40.70;;;5.60;99.90;;;;;;5070485;28;20067;-66
2022/12/01 00:35:09;;;;;;;86.85;41.53;;;5.60;99.90;;;;;;5091394;28;20131;-66
2022/12/01 00:37:35;;;;;;;95.15;42.70;;;5.60;99.90;;;;;;5071066;28;20183;-66
2022/12/01 00:40:01;;;;;;;84.78;41.80;;;5.60;99.90;;;;;;5078095;28;20035;-66
2022/12/01 00:42:27;;;;;;;83.35;41.50;;;5.60;99.90;;;;;;5090320;28;20115;-66
2022/12/01 00:44:53;;;;;;;88.32;41.97;;;5.60;99.90;;;;;;5090838;28;20052;-66
2022/12/01 00:47:21;;;;;;;90.05;43.38;;;5.60;99.90;;;;;;5092839;28;20048;-66
2022/12/01 00:49:47;;;;;;;90.45;42.85;;;5.70;99.90;;;;;;5070698;28;20040;-67
2022/12/01 00:52:14;;;;;;;86.53;42.45;;;5.60;99.90;;;;;;5092446;28;20135;-66
2022/12/01 00:54:40;;;;;;;83.53;41.35;;;5.60;99.90;;;;;;5072616;28;20040;-66
2022/12/01 00:57:06;;;;;;;83.72;41.72;;;5.70;99.90;;;;;;5085679;28;20042;-66
2022/12/01 00:59:32;;;;;;;84.05;42.88;;;5.60;99.90;;;;;;5072786;28;20040;-66
2022/12/01 01:01:58;;;;;;;88.15;42.90;;;5.70;99.90;;;;;;5091646;28;20110;-66
2022/12/01 01:04:23;;;;;;;89.72;42.42;;;5.70;99.90;;;;;;5095368;28;20530;-66
2022/12/01 01:06:49;;;;;;;82.60;42.97;;;5.70;99.90;;;;;;5075356;28;20088;-66
2022/12/01 01:09:16;;;;;;;84.32;42.75;;;5.60;99.90;;;;;;5091516;28;20067;-66
2022/12/01 01:11:42;;;;;;;85.63;41.75;;;5.60;99.90;;;;;;5073677;28;20456;-66
2022/12/01 01:14:08;;;;;;;87.68;41.53;;;5.60;99.90;;;;;;5088659;28;20071;-66
2022/12/01 01:16:34;;;;;;;79.85;41.85;;;5.60;99.90;;;;;;5093339;28;20051;-66
2022/12/01 01:19:00;;;;;;;82.05;42.67;;;5.70;99.90;;;;;;5090236;28;20588;-66
2022/12/01 01:21:26;;;;;;;87.57;42.65;;;5.70;99.90;;;;;;5091404;28;20063;-66
2022/12/01 01:23:53;;;;;;;84.57;41.17;;;5.60;99.90;;;;;;5091267;28;20063;-66
2022/12/01 01:26:29;;;;;;;85.05;42.55;;;5.70;99.90;;;;;;5088613;28;20078;-66
2022/12/01 01:28:58;;;;;;;81.47;42.25;;;5.70;99.90;;;;;;5089638;28;20728;-66
2022/12/01 01:31:26;;;;;;;81.78;42.13;;;5.70;99.90;;;;;;5070292;28;20069;-66
2022/12/01 01:33:51;;;;;;;90.07;44.92;;;5.70;99.90;;;;;;5091015;28;20036;-66
2022/12/01 01:36:18;;;;;;;85.18;42.90;;;5.60;99.90;;;;;;5092891;28;20150;-66
2022/12/01 01:38:45;;;;;;;80.70;41.80;;;5.70;99.90;;;;;;5092630;28;20124;-66
2022/12/01 01:41:11;;;;;;;90.15;42.97;;;5.60;99.90;;;;;;5088019;28;20127;-66
2022/12/01 01:43:47;;;;;;;83.65;43.22;;;5.60;99.90;;;;;;5096871;28;20032;-66
2022/12/01 01:46:30;;;;;;;87.65;41.83;;;5.70;99.90;;;;;;5090130;28;20070;-66
2022/12/01 01:49:07;;;;;;;82.85;42.88;;;5.60;99.90;;;;;;5087103;28;20032;-66
2022/12/01 01:51:40;;;;;;;83.45;42.75;;;5.70;99.90;;;;;;5083534;28;20097;-66
2022/12/01 01:54:28;;;;;;;85.13;42.97;;;5.60;99.90;;;;;;5088285;28;20052;-66
2022/12/01 01:56:55;;;;;;;89.57;43.08;;;5.60;99.90;;;;;;5086397;28;20416;-67
2022/12/01 01:59:31;;;;;;;79.30;40.33;;;5.60;99.90;;;;;;5053847;28;20093;-66
2022/12/01 02:02:08;;;;;;;82.03;43.45;;;5.60;99.90;;;;;;5072570;28;20039;-66
2022/12/01 02:04:36;;;;;;;79.93;41.38;;;5.60;99.90;;;;;;5090819;28;20564;-66
2022/12/01 02:07:03;;;;;;;84.00;43.95;;;5.60;99.90;;;;;;5087566;28;20115;-67
2022/12/01 02:09:28;;;;;;;79.97;42.15;;;5.70;99.90;;;;;;5092501;28;20055;-66
2022/12/01 02:12:12;;;;;;;82.00;43.78;;;5.70;99.90;;;;;;5086286;28;20074;-66
2022/12/01 02:15:12;;;;;;;81.00;43.53;;;5.60;99.90;;;;;;5090436;28;20032;-66
2022/12/01 02:17:53;;;;;;;76.10;41.33;;;5.60;99.90;;;;;;5082749;28;20404;-66
2022/12/01 02:20:22;;;;;;;83.43;43.22;;;5.70;99.90;;;;;;5089398;28;20032;-67
2022/12/01 02:23:31;;;;;;;79.47;41.83;;;5.60;99.90;;;;;;5073233;28;20079;-66
2022/12/01 02:26:14;;;;;;;77.88;42.92;;;5.60;99.90;;;;;;5086920;28;20599;-66
2022/12/01 02:28:57;;;;;;;82.65;43.15;;;5.60;99.90;;;;;;5090928;28;20163;-66
2022/12/01 02:31:36;;;;;;;76.70;42.10;;;5.60;99.90;;;;;;5086977;28;20040;-66
2022/12/01 02:34:29;;;;;;;77.20;42.88;;;5.70;99.90;;;;;;5090859;28;20040;-66
2022/12/01 02:37:04;;;;;;;78.97;42.55;;;5.60;99.90;;;;;;5074263;28;20060;-66
2022/12/01 02:39:48;;;;;;;77.97;42.88;;;5.60;99.90;;;;;;5066459;28;20044;-66
2022/12/01 02:45:09;;;;;;;83.38;45.78;;;5.60;99.90;;;;;;5093511;28;20044;-66
2022/12/01 02:47:37;;;;;;;79.10;43.17;;;5.60;99.90;;;;;;5072825;28;20118;-66
2022/12/01 02:50:04;;;;;;;78.75;43.75;;;5.60;99.90;;;;;;5088535;28;20040;-66
2022/12/01 02:52:30;;;;;;;77.78;42.78;;;5.60;99.90;;;;;;5089563;28;20040;-66
2022/12/01 02:54:56;;;;;;;79.00;43.88;;;5.70;99.90;;;;;;5086841;28;20044;-66
2022/12/01 02:57:23;;;;;;;80.28;44.17;;;5.70;99.90;;;;;;5090780;28;20124;-66
2022/12/01 02:59:53;;;;;;;75.78;42.47;;;5.60;99.90;;;;;;5071329;28;20036;-66
2022/12/01 03:02:41;;;;;;;79.55;43.70;;;5.60;99.90;;;;;;5089679;28;20036;-66
2022/12/01 03:05:32;;;;;;;77.05;41.75;;;5.60;99.90;;;;;;5086721;28;20105;-66
2022/12/01 03:08:21;;;;;;;79.70;42.58;;;5.60;99.90;;;;;;5080769;28;20044;-67
2022/12/01 03:10:56;;;;;;;78.38;42.53;;;5.60;99.90;;;;;;5087686;28;20132;-66
2022/12/01 03:13:37;;;;;;;79.57;43.17;;;5.60;99.90;;;;;;5071562;28;20036;-66
2022/12/01 03:16:21;;;;;;;77.25;42.97;;;5.60;99.90;;;;;;5089730;28;20536;-66
2022/12/01 03:18:54;;;;;;;81.63;44.72;;;5.60;99.90;;;;;;5093953;28;20032;-66
2022/12/01 03:21:34;;;;;;;82.55;45.42;;;5.60;99.90;;;;;;5093510;28;20508;-66
2022/12/01 03:24:13;;;;;;;82.03;44.97;;;5.60;99.90;;;;;;5090206;28;20468;-66
2022/12/01 03:26:46;;;;;;;75.78;44.15;;;5.60;99.90;;;;;;5078089;28;20049;-66
2022/12/01 03:29:23;;;;;;;78.82;44.97;;;5.60;99.90;;;;;;5094372;28;20048;-66
2022/12/01 03:32:00;;;;;;;78.32;44.42;;;5.60;99.90;;;;;;5095707;28;20096;-67
2022/12/01 03:34:41;;;;;;;83.75;44.72;;;5.50;99.90;;;;;;5096154;28;20051;-66
2022/12/01 03:37:12;;;;;;;81.07;44.65;;;5.50;99.90;;;;;;5076136;28;20048;-67
2022/12/01 03:39:40;;;;;;;76.30;44.15;;;5.50;99.90;;;;;;5094700;28;20040;-66
2022/12/01 03:42:16;;;;;;;77.13;43.78;;;5.50;99.90;;;;;;5093621;28;20036;-66
2022/12/01 03:44:49;;;;;;;79.07;45.65;;;5.60;99.90;;;;;;5069883;28;20047;-66
2022/12/01 03:47:25;;;;;;;78.85;44.88;;;5.60;99.90;;;;;;5091132;28;20098;-66
2022/12/01 03:49:52;;;;;;;77.88;43.72;;;5.60;99.90;;;;;;5088252;28;20039;-66
2022/12/01 03:52:27;;;;;;;80.55;45.25;;;5.60;99.90;;;;;;5097623;28;20033;-66
2022/12/01 03:55:10;;;;;;;77.90;45.85;;;5.60;99.90;;;;;;5086673;28;20048;-66
2022/12/01 03:57:56;;;;;;;85.40;44.13;;;5.60;99.90;;;;;;5096012;28;20048;-66
2022/12/01 04:00:23;;;;;;;82.93;43.92;;;5.60;99.90;;;;;;5089285;28;20044;-66
2022/12/01 04:02:57;;;;;;;83.40;44.78;;;5.50;99.90;;;;;;5079571;28;20122;-66
2022/12/01 04:05:23;;;;;;;80.15;45.05;;;5.60;99.90;;;;;;5074810;28;20043;-66
2022/12/01 04:07:49;;;;;;;83.93;44.75;;;5.50;99.90;;;;;;5080158;28;20040;-66
2022/12/01 04:10:14;;;;;;;77.85;45.17;;;5.50;99.90;;;;;;5092328;28;20066;-66
2022/12/01 04:12:40;;;;;;;81.85;44.53;;;5.50;99.90;;;;;;5095956;28;20083;-66
2022/12/01 04:15:11;;;;;;;78.25;44.42;;;5.60;99.90;;;;;;5057597;28;20491;-66
2022/12/01 04:17:37;;;;;;;81.28;45.45;;;5.50;99.90;;;;;;5073462;28;20032;-66
2022/12/01 04:20:05;;;;;;;85.85;45.50;;;5.60;99.90;;;;;;5094380;28;20070;-66
2022/12/01 04:22:32;;;;;;;77.13;44.83;;;5.50;99.90;;;;;;5076513;28;20032;-67
2022/12/01 04:24:57;;;;;;;83.05;46.90;;;5.60;99.90;;;;;;5092883;28;20044;-66
2022/12/01 04:27:23;;;;;;;80.63;45.20;;;5.50;99.90;;;;;;5088704;28;20048;-66
2022/12/01 04:29:49;;;;;;;85.45;46.67;;;5.50;99.90;;;;;;5094148;28;20067;-66
2022/12/01 04:32:15;;;;;;;83.80;46.40;;;5.60;99.90;;;;;;5089170;28;20040;-66
2022/12/01 04:34:41;;;;;;;83.57;46.88;;;5.60;99.90;;;;;;5074338;28;20040;-66
2022/12/01 04:37:07;;;;;;;86.13;47.65;;;5.50;99.90;;;;;;5091867;28;20046;-66
2022/12/01 04:39:33;;;;;;;90.18;48.83;;;5.50;99.90;;;;;;5076505;28;20148;-66
2022/12/01 04:41:59;;;;;;;81.90;45.88;;;5.60;99.90;;;;;;5091060;28;20131;-66
2022/12/01 04:44:24;;;;;;;83.75;47.47;;;5.50;99.90;;;;;;5089062;28;20484;-66
2022/12/01 04:46:54;;;;;;;88.45;48.15;;;5.50;99.90;;;;;;5091089;28;20062;-66
2022/12/01 04:49:20;;;;;;;84.70;46.92;;;5.50;99.90;;;;;;5080868;28;20042;-66
2022/12/01 04:51:46;;;;;;;86.38;46.50;;;5.50;99.90;;;;;;5088765;28;20059;-66
2022/12/01 04:54:13;;;;;;;90.53;48.63;;;5.50;99.90;;;;;;5091693;28;20480;-66
2022/12/01 04:56:39;;;;;;;87.13;47.63;;;5.50;99.90;;;;;;5074589;28;20109;-66
2022/12/01 04:59:04;;;;;;;84.03;47.13;;;5.50;99.90;;;;;;5093251;28;20032;-66
2022/12/01 05:01:30;;;;;;;89.95;49.85;;;5.50;99.90;;;;;;5072032;28;20067;-66
2022/12/01 05:03:56;;;;;;;90.25;48.03;;;5.50;99.90;;;;;;5091124;28;20036;-66
2022/12/01 05:06:25;;;;;;;91.28;48.97;;;5.50;99.90;;;;;;5088850;28;20072;-66
2022/12/01 05:08:53;;;;;;;90.47;49.35;;;5.50;99.90;;;;;;5100144;28;20398;-66
2022/12/01 05:11:19;;;;;;;89.57;49.35;;;5.50;99.90;;;;;;5057038;28;20059;-66
2022/12/01 05:13:47;;;;;;;89.25;49.60;;;5.50;99.90;;;;;;5089023;28;20417;-66
2022/12/01 05:16:15;;;;;;;92.45;48.20;;;5.60;99.90;;;;;;5052159;28;20044;-67
2022/12/01 05:18:42;;;;;;;91.80;51.17;;;5.50;99.90;;;;;;5089409;28;20474;-66
2022/12/01 05:21:09;;;;;;;88.18;48.85;;;5.60;99.90;;;;;;5085373;28;20516;-66
2022/12/01 05:23:37;;;;;;;90.85;49.28;;;5.60;99.90;;;;;;5072496;28;20035;-67
2022/12/01 05:26:05;;;;;;;90.68;49.33;;;5.50;99.90;;;;;;5062510;28;20156;-66
2022/12/01 05:28:31;;;;;;;94.03;50.15;;;5.50;99.90;;;;;;5091339;28;20068;-66
2022/12/01 05:30:57;;;;;;;91.88;47.83;;;5.50;99.90;;;;;;5090384;28;20040;-66
2022/12/01 05:33:24;;;;;;;88.82;48.05;;;5.50;99.90;;;;;;5091774;28;20043;-66
2022/12/01 05:35:50;;;;;;;92.47;48.70;;;5.60;99.90;;;;;;5092758;28;20039;-66
2022/12/01 05:38:17;;;;;;;95.40;49.92;;;5.50;99.90;;;;;;5088009;28;20533;-66
2022/12/01 05:40:52;;;;;;;94.30;49.45;;;5.50;99.90;;;;;;5087934;28;20054;-66
2022/12/01 05:43:19;;;;;;;90.88;47.97;;;5.50;99.90;;;;;;5089577;28;20051;-66
2022/12/01 05:45:45;;;;;;;92.03;50.55;;;5.60;99.90;;;;;;5070976;28;20080;-66
2022/12/01 05:48:11;;;;;;;89.72;49.50;;;5.60;99.90;;;;;;5089278;28;20070;-66
2022/12/01 05:50:38;;;;;;;89.45;49.92;;;5.50;99.90;;;;;;5089504;28;20032;-66
2022/12/01 05:53:04;;;;;;;88.55;49.03;;;5.50;99.90;;;;;;5084335;28;20059;-66
2022/12/01 05:55:33;;;;;;;91.50;47.53;;;5.60;99.90;;;;;;5090336;28;20043;-66
2022/12/01 05:57:59;;;;;;;93.22;49.47;;;5.60;99.90;;;;;;5091177;28;20037;-66
2022/12/01 06:00:24;;;;;;;99.88;51.30;;;5.60;99.90;;;;;;5087883;28;20125;-66
2022/12/01 06:02:50;;;;;;;98.93;50.75;;;5.60;99.90;;;;;;5085802;28;20411;-66
2022/12/01 06:05:16;;;;;;;90.35;48.97;;;5.50;99.90;;;;;;5092829;28;20391;-66
2022/12/01 06:07:42;;;;;;;95.43;49.83;;;5.60;99.90;;;;;;5074683;28;20051;-66
2022/12/01 06:10:09;;;;;;;94.63;51.45;;;5.60;99.90;;;;;;5092808;28;20040;-66
2022/12/01 06:12:35;;;;;;;92.55;48.83;;;5.50;99.90;;;;;;5087500;28;20097;-66
2022/12/01 06:15:01;;;;;;;92.38;48.67;;;5.60;99.90;;;;;;5090240;28;20043;-66
2022/12/01 06:17:27;;;;;;;96.50;50.25;;;5.60;99.90;;;;;;5090121;28;20058;-66
2022/12/01 06:19:52;;;;;;;88.55;48.15;;;5.60;99.90;;;;;;5091407;28;20061;-66
2022/12/01 06:22:18;;;;;;;97.57;50.80;;;5.50;99.90;;;;;;5075054;28;20115;-66
2022/12/01 06:24:44;;;;;;;92.93;48.83;;;5.50;99.90;;;;;;5090632;28;20440;-66
2022/12/01 06:27:09;;;;;;;96.28;49.92;;;5.50;99.90;;;;;;5088106;28;20047;-66
2022/12/01 06:29:35;;;;;;;92.80;48.53;;;5.60;99.90;;;;;;5095442;28;20032;-67
2022/12/01 06:32:01;;;;;;;94.13;49.67;;;5.50;99.90;;;;;;5074804;28;20061;-67
2022/12/01 06:34:26;;;;;;;93.38;50.25;;;5.50;99.90;;;;;;5092859;28;20036;-67
2022/12/01 06:36:52;;;;;;;98.57;51.22;;;5.60;99.90;;;;;;5091442;28;20042;-67
2022/12/01 06:39:18;;;;;;;96.88;49.53;;;5.60;99.90;;;;;;5098635;28;20056;-67
2022/12/01 06:41:43;;;;;;;98.20;49.13;;;5.50;99.90;;;;;;5100544;28;20061;-67
2022/12/01 06:44:09;;;;;;;94.85;50.10;;;5.60;99.90;;;;;;5096320;28;20068;-67
2022/12/01 06:46:35;;;;;;;97.75;50.63;;;5.60;99.90;;;;;;5093920;28;20501;-67
2022/12/01 06:49:01;;;;;;;92.07;48.78;;;5.50;99.90;;;;;;5095381;28;20124;-67
2022/12/01 06:51:27;;;;;;;95.03;48.97;;;5.60;99.90;;;;;;5097137;28;20035;-67
2022/12/01 06:53:56;;;;;;;94.00;48.38;;;5.50;99.90;;;;;;5079909;28;20097;-67
2022/12/01 06:56:22;;;;;;;95.50;48.33;;;5.50;99.90;;;;;;5080470;28;20040;-67
2022/12/01 06:58:51;;;;;;;95.85;49.53;;;5.50;99.90;;;;;;5081639;28;20163;-67
2022/12/01 07:01:17;;;;;;;98.13;49.92;;;5.50;99.90;;;;;;5096491;28;20115;-67
2022/12/01 07:03:47;;;;;;;103.10;52.13;;;5.50;99.90;;;;;;5101053;28;20039;-67
2022/12/01 07:06:13;;;;;;;99.60;49.83;;;5.50;99.90;;;;;;5079919;28;20044;-67
2022/12/01 07:08:39;;;;;;;99.78;50.33;;;5.50;99.90;;;;;;5100600;28;20466;-67
2022/12/01 07:11:07;;;;;;;92.25;48.13;;;5.50;99.90;;;;;;5101293;28;20044;-67
2022/12/01 07:13:34;;;;;;;98.57;50.08;;;5.50;99.90;;;;;;5083691;28;20065;-67
2022/12/01 07:16:01;;;;;;;91.45;47.83;;;5.50;99.90;;;;;;5076145;28;20092;-67
2022/12/01 07:18:27;;;;;;;96.30;50.42;;;5.50;99.90;;;;;;5081453;28;20479;-67
2022/12/01 07:20:53;;;;;;;94.95;50.95;;;5.40;99.90;;;;;;5107611;28;20032;-67
2022/12/01 07:23:20;;;;;;;97.78;50.75;;;5.50;99.90;;;;;;5087183;28;20569;-67
2022/12/01 07:25:45;;;;;;;93.57;50.65;;;5.50;99.90;;;;;;5108287;28;20051;-67
2022/12/01 07:28:11;;;;;;;98.63;49.75;;;5.50;99.90;;;;;;5107069;28;20043;-67
2022/12/01 07:30:37;;;;;;;89.97;48.78;;;5.50;99.90;;;;;;5082424;28;20121;-67
2022/12/01 07:33:03;;;;;;;98.65;49.45;;;5.50;99.90;;;;;;5103060;28;20066;-68
2022/12/01 07:35:29;;;;;;;95.90;49.20;;;5.50;99.90;;;;;;5107791;28;20032;-67
2022/12/01 07:37:55;;;;;;;105.05;50.83;;;5.50;99.90;;;;;;5088208;28;20052;-67
2022/12/01 07:40:21;;;;;;;98.18;48.65;;;5.50;99.90;;;;;;5106480;28;20040;-67
2022/12/01 07:42:47;;;;;;;89.95;46.95;;;5.50;99.90;;;;;;5101542;28;20131;-67
2022/12/01 07:45:13;;;;;;;92.55;49.83;;;5.50;99.90;;;;;;5103585;28;20068;-67
2022/12/01 07:47:39;;;;;;;98.18;49.97;;;5.50;99.90;;;;;;5069313;28;20065;-67
2022/12/01 07:50:05;;;;;;;98.72;50.45;;;5.50;99.90;;;;;;5109916;28;20036;-67
2022/12/01 07:52:30;;;;;;;98.95;49.90;;;5.50;99.90;;;;;;5100792;28;20036;-67
2022/12/01 07:54:56;;;;;;;98.00;49.67;;;5.50;99.90;;;;;;5095084;28;20040;-66
2022/12/01 07:57:22;;;;;;;97.40;49.70;;;5.50;99.90;;;;;;5088792;28;20028;-66
2022/12/01 07:59:48;;;;;;;106.03;50.78;;;5.50;99.90;;;;;;5088138;28;20040;-66
2022/12/01 08:02:14;;;;;;;99.25;50.60;;;5.50;99.90;;;;;;5089682;28;20040;-66
2022/12/01 08:04:39;;;;;;;98.25;50.80;;;5.60;99.90;;;;;;5093448;28;20072;-66
2022/12/01 08:07:05;;;;;;;99.45;49.58;;;5.60;99.90;;;;;;5088067;28;20044;-66
2022/12/01 08:09:31;;;;;;;97.32;49.63;;;5.60;99.90;;;;;;5092947;28;20040;-66
2022/12/01 08:11:56;;;;;;;95.65;50.33;;;5.60;99.90;;;;;;5087682;28;20060;-66
2022/12/01 08:14:22;;;;;;;99.80;50.85;;;5.60;99.90;;;;;;5089385;28;20028;-66
2022/12/01 08:16:48;;;;;;;95.03;51.22;;;5.60;99.90;;;;;;5084020;28;20050;-66
2022/12/01 08:19:14;;;;;;;107.15;49.95;;;5.60;99.90;;;;;;5071317;28;20063;-66
2022/12/01 08:21:39;;;;;;;96.85;49.10;;;5.60;99.90;;;;;;5095824;28;20036;-66
2022/12/01 08:24:06;;;;;;;92.32;47.25;;;5.70;99.90;;;;;;5090894;28;20040;-66
2022/12/01 08:26:31;;;;;;;96.10;48.88;;;5.70;99.90;;;;;;5093740;28;20039;-66
2022/12/01 08:28:57;;;;;;;96.30;48.20;;;5.60;99.90;;;;;;5089123;28;20036;-66
2022/12/01 08:31:30;;;;;;;94.55;48.83;;;5.70;99.90;;;;;;5096834;28;20144;-66
2022/12/01 08:33:56;;;;;;;99.13;48.20;;;5.70;99.90;;;;;;5089902;28;20044;-66
2022/12/01 08:36:23;;;;;;;97.93;50.42;;;5.70;99.90;;;;;;5075231;28;20122;-66
2022/12/01 08:38:52;;;;;;;94.43;49.70;;;5.70;99.90;;;;;;5073176;28;20183;-66
2022/12/01 08:41:19;;;;;;;95.10;48.75;;;5.70;99.90;;;;;;5093173;28;20044;-66
2022/12/01 08:43:44;;;;;;;93.20;47.08;;;5.70;99.90;;;;;;5086150;28;20521;-66
2022/12/01 08:46:11;;;;;;;97.18;49.33;;;5.70;99.90;;;;;;5096131;28;20048;-66
2022/12/01 08:48:38;;;;;;;99.55;47.45;;;5.70;99.90;;;;;;5086624;28;20035;-66
2022/12/01 08:51:09;;;;;;;100.93;49.45;;;5.70;99.90;;;;;;5092701;28;20074;-66
2022/12/01 08:53:36;;;;;;;93.22;48.28;;;5.70;99.90;;;;;;5092776;28;20042;-66
2022/12/01 08:56:07;;;;;;;96.00;49.63;;;5.60;99.90;;;;;;5073475;28;20036;-66
2022/12/01 08:58:32;;;;;;;94.90;48.75;;;5.60;99.90;;;;;;5087794;28;20089;-66
2022/12/01 09:01:07;;;;;;;91.65;48.22;;;5.60;99.90;;;;;;5092774;28;20032;-66
2022/12/01 09:03:33;;;;;;;94.97;49.38;;;5.60;99.90;;;;;;5089197;28;20157;-66
2022/12/01 09:06:07;;;;;;;104.15;49.90;;;5.60;99.90;;;;;;5075404;28;20081;-67
2022/12/01 09:08:34;;;;;;;96.95;50.20;;;5.50;99.90;;;;;;5085534;28;20036;-67
2022/12/01 09:11:06;;;;;;;97.88;50.10;;;5.50;99.90;;;;;;5089560;28;20503;-67
2022/12/01 09:13:33;;;;;;;99.55;49.58;;;5.50;99.90;;;;;;5087784;28;20039;-67
2022/12/01 09:16:02;;;;;;;102.10;49.17;;;5.50;99.90;;;;;;5087166;28;20052;-67
2022/12/01 09:18:28;;;;;;;101.88;50.78;;;5.50;99.90;;;;;;5069992;28;20438;-67
2022/12/01 09:20:54;;;;;;;98.45;49.35;;;5.40;99.90;;;;;;5089620;28;20034;-67
2022/12/01 09:23:21;;;;;;;101.82;50.15;;;5.40;99.90;;;;;;5093289;28;20074;-67
2022/12/01 09:25:48;;;;;;;94.28;50.47;;;5.40;99.90;;;;;;5089433;28;20172;-67
2022/12/01 09:28:13;;;;;;;102.32;50.63;;;5.40;99.90;;;;;;5071900;28;20047;-67
2022/12/01 09:30:40;;;;;;;101.55;50.10;;;5.40;99.90;;;;;;5087089;28;20101;-67
2022/12/01 09:33:06;;;;;;;94.78;47.05;;;5.30;99.90;;;;;;5088516;28;20515;-67
2022/12/01 09:35:33;;;;;;;97.88;50.63;;;5.40;99.90;;;;;;5071291;28;20126;-66
2022/12/01 09:37:58;;;;;;;102.88;50.58;;;5.40;99.90;;;;;;5089949;28;20041;-67
2022/12/01 09:40:30;;;;;;;104.07;50.33;;;5.40;99.90;;;;;;5091402;28;20032;-66
2022/12/01 09:42:58;;;;;;;103.85;50.00;;;5.40;99.90;;;;;;5087519;28;20049;-67
2022/12/01 09:45:28;;;;;;;102.60;49.95;;;5.40;99.90;;;;;;5088000;28;20040;-67
2022/12/01 09:47:57;;;;;;;98.95;48.63;;;5.40;99.90;;;;;;5072608;28;20075;-67
2022/12/01 09:50:24;;;;;;;100.20;50.30;;;5.40;99.90;;;;;;5092115;28;20040;-67
2022/12/01 09:52:59;;;;;;;100.63;51.10;;;5.40;99.90;;;;;;5091374;28;20115;-67
2022/12/01 09:55:26;;;;;;;99.22;49.28;;;5.40;99.90;;;;;;5086449;28;20553;-66
2022/12/01 09:57:55;;;;;;;97.88;49.83;;;5.50;99.90;;;;;;5089635;28;20096;-67
2022/12/01 10:00:28;;;;;;;96.30;48.53;;;5.40;99.90;;;;;;5089632;28;20135;-66
2022/12/01 10:02:59;;;;;;;97.68;47.45;;;5.50;99.90;;;;;;5066719;28;20059;-67
2022/12/01 10:05:33;;;;;;;97.90;48.63;;;5.50;99.90;;;;;;5069377;28;20056;-67
2022/12/01 10:08:02;;;;;;;101.15;49.72;;;5.50;99.90;;;;;;5085274;28;20039;-67
2022/12/01 10:10:47;;;;;;;97.68;48.20;;;5.40;99.90;;;;;;5090305;28;20055;-67
2022/12/01 10:13:21;;;;;;;93.10;47.97;;;5.40;99.90;;;;;;5091389;28;20043;-67
2022/12/01 10:15:50;;;;;;;;;;;5.40;99.90;;;;;;5062387;28;20053;-67
2022/12/01 10:18:47;;;;;;;89.25;45.65;;;5.40;99.90;;;;;;5086002;28;19950;-67
2022/12/01 10:21:41;;;;;;;90.57;48.60;;;5.40;99.90;;;;;;5090729;28;20431;-67
2022/12/01 10:24:14;;;;;;;97.15;48.42;;;5.40;99.90;;;;;;5073264;28;20051;-67
2022/12/01 10:27:12;;;;;;;94.03;48.30;;;5.40;99.90;;;;;;5086592;28;20343;-67
2022/12/01 10:29:48;;;;;;;93.78;48.50;;;5.40;99.90;;;;;;5072029;28;20051;-67
2022/12/01 10:32:48;;;;;;;92.10;48.20;;;5.50;99.90;;;;;;5069023;28;20048;-67
2022/12/01 10:35:15;;;;;;;92.70;47.05;;;5.60;99.90;;;;;;5071970;28;20131;-67
2022/12/01 10:37:44;;;;;;;97.88;48.80;;;5.70;99.90;;;;;;5087180;28;20446;-67
2022/12/01 10:40:14;;;;;;;90.28;47.10;;;5.80;99.90;;;;;;5090640;28;20101;-67
2022/12/01 10:42:43;;;;;;;95.32;48.58;;;5.90;99.90;;;;;;5084902;28;20454;-67
2022/12/01 10:45:34;;;;;;;88.43;47.88;;;5.90;99.90;;;;;;5086456;28;20052;-67
2022/12/01 10:48:21;;;;;;;84.60;48.08;;;6.00;99.90;;;;;;5068017;28;20109;-67
2022/12/01 10:50:52;;;;;;;89.05;46.58;;;6.10;99.90;;;;;;5076570;28;20059;-67
2022/12/01 10:53:21;;;;;;;75.93;44.45;;;6.10;99.90;;;;;;5088956;28;20164;-67
2022/12/01 10:55:49;;;;;;;78.88;45.08;;;6.20;99.90;;;;;;5087447;28;20496;-67
2022/12/01 10:58:17;;;;;;;84.25;44.78;;;6.30;99.90;;;;;;5091883;28;20040;-67
2022/12/01 11:00:53;;;;;;;84.80;45.03;;;6.30;99.90;;;;;;5090528;28;20135;-67
2022/12/01 11:03:22;;;;;;;80.18;44.13;;;6.40;99.90;;;;;;5069120;28;20806;-67
2022/12/01 11:05:57;;;;;;;84.72;44.50;;;6.40;99.90;;;;;;5092394;28;20047;-67
2022/12/01 11:08:30;;;;;;;81.50;41.83;;;6.50;99.90;;;;;;5088415;28;20040;-67
2022/12/01 11:10:56;;;;;;;73.85;42.00;;;6.50;99.90;;;;;;5075703;28;20079;-67
2022/12/01 11:13:28;;;;;;;71.10;40.50;;;6.50;99.90;;;;;;5089181;28;20076;-67
2022/12/01 11:16:02;;;;;;;72.30;40.83;;;6.50;99.90;;;;;;5090112;28;20040;-67
2022/12/01 11:18:33;;;;;;;68.82;41.67;;;6.60;99.90;;;;;;5089731;28;20063;-67
2022/12/01 11:21:08;;;;;;;73.88;41.75;;;6.70;99.90;;;;;;5091937;28;20079;-67
2022/12/01 11:23:35;;;;;;;;;;;6.70;99.90;;;;;;5085684;28;20060;-67
2022/12/01 11:26:30;;;;;;;67.35;38.85;;;6.70;99.90;;;;;;5091791;28;19927;-67
2022/12/01 11:29:06;;;;;;;67.65;39.67;;;6.70;99.90;;;;;;5090551;28;20078;-67
2022/12/01 11:31:45;;;;;;;65.82;37.88;;;6.80;99.90;;;;;;5088383;28;20092;-68
2022/12/01 11:34:18;;;;;;;65.68;39.25;;;6.90;99.90;;;;;;5088330;28;20074;-67
2022/12/01 11:36:48;;;;;;;63.63;37.93;;;6.80;99.90;;;;;;5071156;28;20126;-67
2022/12/01 11:39:31;;;;;;;68.90;39.83;;;6.80;99.90;;;;;;5069466;28;20399;-67
2022/12/01 11:42:10;;;;;;;70.60;41.05;;;6.80;99.90;;;;;;5094122;28;20143;-67
2022/12/01 11:44:36;;;;;;;68.40;39.22;;;6.80;99.90;;;;;;5088292;28;20152;-67
2022/12/01 11:47:31;;;;;;;66.15;39.80;;;6.80;99.90;;;;;;5089192;28;20066;-67
2022/12/01 11:50:00;;;;;;;63.65;37.42;;;6.90;99.90;;;;;;5049798;28;20063;-67
2022/12/01 11:52:29;;;;;;;66.28;38.92;;;6.80;99.90;;;;;;5075942;28;20098;-66
2022/12/01 11:55:20;;;;;;;63.45;38.42;;;6.80;99.90;;;;;;5090011;28;20101;-67
2022/12/01 11:57:52;;;;;;;58.53;36.20;;;6.90;99.90;;;;;;5088510;28;20067;-67
2022/12/01 12:00:26;;;;;;;65.50;38.50;;;6.90;99.90;;;;;;5092366;28;20097;-67
2022/12/01 12:03:34;;;;;;;64.05;36.25;;;6.90;99.90;;;;;;5094585;28;20032;-67
2022/12/01 12:06:12;;;;;;;59.13;35.63;;;6.90;99.90;;;;;;5087519;28;20050;-67
2022/12/01 12:08:57;;;;;;;60.92;36.97;;;6.80;99.90;;;;;;5095206;28;20036;-67
2022/12/01 12:11:39;;;;;;;63.08;38.38;;;6.80;99.90;;;;;;5091285;28;20044;-67
2022/12/01 12:15:03;;;;;;;64.13;38.33;;;6.90;99.90;;;;;;5088062;28;20621;-67
2022/12/01 12:17:54;;;;;;;59.13;36.90;;;6.90;99.90;;;;;;5044905;28;20080;-67
2022/12/01 12:20:45;;;;;;;61.92;36.90;;;6.90;99.90;;;;;;5060564;28;20507;-67
2022/12/01 12:23:26;;;;;;;59.42;37.45;;;6.90;99.90;;;;;;5092951;28;20605;-67
2022/12/01 12:26:15;;;;;;;59.72;37.55;;;6.90;99.90;;;;;;5091879;28;20047;-67
2022/12/01 12:28:49;;;;;;;62.65;37.70;;;6.90;99.90;;;;;;5093816;28;20042;-67
2022/12/01 12:31:52;;;;;;;59.67;35.47;;;6.90;99.90;;;;;;5074288;28;20070;-67
2022/12/01 12:34:48;;;;;;;63.13;38.05;;;6.90;99.90;;;;;;5090188;28;20040;-67
2022/12/01 12:37:19;;;;;;;61.50;37.83;;;7.00;99.90;;;;;;5094399;28;20044;-67
2022/12/01 12:40:18;;;;;;;61.30;37.47;;;6.90;99.90;;;;;;5080683;28;20058;-67
2022/12/01 12:43:32;;;;;;;61.22;38.10;;;7.00;99.90;;;;;;5095552;28;20140;-67
2022/12/01 12:46:10;;;;;;;58.78;36.47;;;7.00;99.90;;;;;;5096331;28;20043;-67
2022/12/01 12:48:51;;;;;;;62.47;39.47;;;7.00;99.90;;;;;;5085755;28;20048;-67
2022/12/01 12:51:27;;;;;;;67.47;43.33;;;7.00;99.90;;;;;;5087182;28;20051;-67
2022/12/01 12:54:09;;;;;;;65.22;41.05;;;7.00;99.90;;;;;;5093631;28;20044;-67
2022/12/01 12:56:35;;;;;;;64.88;38.05;;;7.00;99.90;;;;;;5091227;28;20066;-67
2022/12/01 12:59:13;;;;;;;58.38;36.72;;;7.00;99.90;;;;;;5088407;28;20034;-67